createdAt,value
2019-04-01T00:02:04.219Z,100167.72
2019-04-01T00:04:32.545Z,100159.20
2019-04-01T00:07:00.532Z,100166.97
2019-04-01T00:09:28.571Z,100162.05
2019-04-01T00:11:58.736Z,100171.63
2019-04-01T00:14:26.791Z,100168.53
2019-04-01T00:16:54.806Z,100164.16
2019-04-01T00:19:22.848Z,100164.84
2019-04-01T00:21:50.896Z,100166.50
2019-04-01T00:24:18.903Z,100165.21
2019-04-01T00:26:47.040Z,100166.08
2019-04-01T00:29:15.065Z,100166.42
2019-04-01T00:31:43.178Z,100173.38
2019-04-01T00:34:11.387Z,100162.73
2019-04-01T00:36:39.413Z,100168.83
2019-04-01T00:39:07.520Z,100166.25
2019-04-01T00:41:43.529Z,100170.34
2019-04-01T00:44:12.211Z,100163.65
2019-04-01T00:46:41.262Z,100172.06
2019-04-01T00:49:09.551Z,100168.48
2019-04-01T00:51:37.588Z,100169.14
2019-04-01T00:54:05.594Z,100171.95
2019-04-01T00:56:33.686Z,100176.08
2019-04-01T00:59:02.073Z,100170.19
2019-04-01T01:01:30.453Z,100173.81
2019-04-01T01:03:59.802Z,100171.20
2019-04-01T01:06:28.517Z,100168.77
2019-04-01T01:08:56.501Z,100173.86
2019-04-01T01:11:24.588Z,100170.59
2019-04-01T01:13:52.574Z,100165.21
2019-04-01T01:16:20.620Z,100171.93
2019-04-01T01:18:48.635Z,100166.23
2019-04-01T01:21:16.691Z,100165.59
2019-04-01T01:23:44.688Z,100166.74
2019-04-01T01:26:15.774Z,100168.42
2019-04-01T01:28:43.766Z,100164.50
2019-04-01T01:31:11.804Z,100165.36
2019-04-01T01:33:39.824Z,100165.16
2019-04-01T01:36:07.953Z,100161.59
2019-04-01T01:38:35.940Z,100157.34
2019-04-01T01:41:03.990Z,100160.47
2019-04-01T01:43:31.991Z,100162.47
2019-04-01T01:46:00.339Z,100158.05
2019-04-01T01:48:28.444Z,100152.84
2019-04-01T01:50:56.818Z,100154.30
2019-04-01T01:53:24.862Z,100156.78
2019-04-01T01:55:52.863Z,100162.22
2019-04-01T01:58:20.953Z,100165.48
2019-04-01T02:00:49.283Z,100165.35
2019-04-01T02:03:19.522Z,100167.34
2019-04-01T02:05:48.797Z,100164.08
2019-04-01T02:08:16.823Z,100166.04
2019-04-01T02:10:45.170Z,100170.66
2019-04-01T02:13:13.213Z,100163.45
2019-04-01T02:15:41.506Z,100159.53
2019-04-01T02:18:09.579Z,100161.52
2019-04-01T02:20:37.581Z,100166.09
2019-04-01T02:23:05.625Z,100163.52
2019-04-01T02:25:33.634Z,100162.53
2019-04-01T02:28:01.671Z,100159.27
2019-04-01T02:30:30.292Z,100168.45
2019-04-01T02:32:58.619Z,100166.69
2019-04-01T02:35:26.637Z,100163.07
2019-04-01T02:37:54.698Z,100165.23
2019-04-01T02:40:23.005Z,100161.66
2019-04-01T02:42:51.143Z,100165.42
2019-04-01T02:45:19.142Z,100163.64
2019-04-01T02:47:48.438Z,100166.09
2019-04-01T02:50:16.491Z,100173.99
2019-04-01T02:52:44.648Z,100173.50
2019-04-01T02:57:48.972Z,100173.64
2019-04-01T03:00:17.422Z,100176.30
2019-04-01T03:02:45.459Z,100179.09
2019-04-01T03:05:13.486Z,100178.13
2019-04-01T03:07:41.517Z,100185.50
2019-04-01T03:10:11.236Z,100188.47
2019-04-01T03:12:39.313Z,100188.61
2019-04-01T03:15:07.531Z,100189.78
2019-04-01T03:17:35.585Z,100192.25
2019-04-01T03:20:04.248Z,100193.38
2019-04-01T03:22:32.323Z,100189.30
2019-04-01T03:25:00.733Z,100196.52
2019-04-01T03:27:28.870Z,100196.34
2019-04-01T03:29:56.959Z,100195.20
2019-04-01T03:32:24.967Z,100191.27
2019-04-01T03:34:53.005Z,100190.13
2019-04-01T03:37:21.104Z,100192.28
2019-04-01T03:39:49.155Z,100189.97
2019-04-01T03:42:17.156Z,100190.64
2019-04-01T03:44:45.198Z,100185.22
2019-04-01T03:47:14.407Z,100193.39
2019-04-01T03:49:43.485Z,100183.26
2019-04-01T03:52:11.681Z,100187.99
2019-04-01T03:54:39.718Z,100185.86
2019-04-01T03:57:08.245Z,100193.23
2019-04-01T03:59:36.256Z,100204.84
2019-04-01T04:02:04.266Z,100197.00
2019-04-01T04:04:33.635Z,100199.61
2019-04-01T04:07:02.313Z,100194.39
2019-04-01T04:09:30.464Z,100197.81
2019-04-01T04:11:58.895Z,100197.66
2019-04-01T04:14:26.941Z,100198.95
2019-04-01T04:16:55.278Z,100198.79
2019-04-01T04:19:23.391Z,100192.23
2019-04-01T04:21:51.408Z,100203.85
2019-04-01T04:24:19.433Z,100208.91
2019-04-01T04:26:47.738Z,100207.93
2019-04-01T04:29:15.809Z,100207.61
2019-04-01T04:31:44.929Z,100207.91
2019-04-01T04:34:14.006Z,100205.63
2019-04-01T04:36:42.050Z,100210.21
2019-04-01T04:39:10.425Z,100210.52
2019-04-01T04:41:38.448Z,100209.05
2019-04-01T04:44:07.599Z,100206.24
2019-04-01T04:46:37.193Z,100206.08
2019-04-01T04:49:05.258Z,100210.67
2019-04-01T04:51:33.217Z,100216.06
2019-04-01T04:54:01.305Z,100212.77
2019-04-01T04:56:29.388Z,100210.48
2019-04-01T04:58:57.476Z,100211.47
2019-04-01T05:01:25.543Z,100214.70
2019-04-01T05:03:53.627Z,100218.31
2019-04-01T05:06:21.974Z,100217.66
2019-04-01T05:08:49.974Z,100219.13
2019-04-01T05:11:18.104Z,100219.27
2019-04-01T05:13:46.865Z,100222.70
2019-04-01T05:16:14.949Z,100222.38
2019-04-01T05:18:43.371Z,100231.83
2019-04-01T05:21:14.072Z,100230.36
2019-04-01T05:23:42.633Z,100236.05
2019-04-01T05:26:11.748Z,100233.59
2019-04-01T05:28:43.848Z,100230.00
2019-04-01T05:31:14.680Z,100236.54
2019-04-01T05:33:55.367Z,100236.02
2019-04-01T05:36:20.628Z,100240.44
2019-04-01T05:38:48.691Z,100238.47
2019-04-01T05:41:16.779Z,100235.17
2019-04-01T05:43:46.415Z,100234.84
2019-04-01T05:46:14.492Z,100240.56
2019-04-01T05:48:42.530Z,100240.07
2019-04-01T05:51:10.615Z,100238.44
2019-04-01T05:53:38.632Z,100238.27
2019-04-01T05:56:07.518Z,100239.25
2019-04-01T05:58:35.583Z,100238.77
2019-04-01T06:01:08.392Z,100235.17
2019-04-01T06:03:36.448Z,100237.98
2019-04-01T06:06:04.702Z,100240.11
2019-04-01T06:08:32.756Z,100246.80
2019-04-01T06:11:00.880Z,100250.92
2019-04-01T06:13:28.930Z,100254.03
2019-04-01T06:15:57.217Z,100254.20
2019-04-01T06:18:25.476Z,100255.53
2019-04-01T06:20:53.546Z,100257.01
2019-04-01T06:23:21.598Z,100257.85
2019-04-01T06:25:49.664Z,100255.27
2019-04-01T06:28:17.681Z,100248.23
2019-04-01T06:30:45.770Z,100255.30
2019-04-01T06:33:14.193Z,100254.82
2019-04-01T06:35:42.265Z,100253.70
2019-04-01T06:38:10.406Z,100255.69
2019-04-01T06:40:38.495Z,100250.63
2019-04-01T06:43:06.564Z,100250.64
2019-04-01T06:45:34.762Z,100247.71
2019-04-01T06:48:02.937Z,100251.51
2019-04-01T06:50:31.114Z,100256.75
2019-04-01T06:52:59.275Z,100249.72
2019-04-01T06:55:27.334Z,100248.89
2019-04-01T06:57:55.625Z,100252.71
2019-04-01T07:00:23.660Z,100248.92
2019-04-01T07:02:51.752Z,100256.47
2019-04-01T07:05:20.087Z,100247.46
2019-04-01T07:07:48.776Z,100249.39
2019-04-01T07:10:16.777Z,100246.75
2019-04-01T07:12:44.878Z,100250.00
2019-04-01T07:15:13.011Z,100247.16
2019-04-01T07:17:41.825Z,100242.52
2019-04-01T07:20:10.191Z,100243.28
2019-04-01T07:22:38.291Z,100237.12
2019-04-01T07:25:07.572Z,100238.53
2019-04-01T07:27:35.662Z,100234.97
2019-04-01T07:30:04.797Z,100232.88
2019-04-01T07:32:33.261Z,100234.36
2019-04-01T07:35:02.290Z,100239.81
2019-04-01T07:37:30.451Z,100235.17
2019-04-01T07:39:58.595Z,100234.77
2019-04-01T07:42:26.656Z,100235.39
2019-04-01T07:44:54.686Z,100232.35
2019-04-01T07:47:22.845Z,100230.20
2019-04-01T07:49:51.165Z,100234.44
2019-04-01T07:52:19.575Z,100225.05
2019-04-01T07:54:47.611Z,100226.98
2019-04-01T07:57:15.800Z,100227.25
2019-04-01T07:59:44.241Z,100231.16
2019-04-01T08:02:12.383Z,100231.78
2019-04-01T08:04:40.712Z,100234.16
2019-04-01T08:07:08.761Z,100236.52
2019-04-01T08:09:36.798Z,100237.92
2019-04-01T08:12:04.950Z,100236.87
2019-04-01T08:14:32.978Z,100239.44
2019-04-01T08:17:01.077Z,100234.99
2019-04-01T08:19:29.661Z,100236.91
2019-04-01T08:21:57.801Z,100240.16
2019-04-01T08:24:25.843Z,100239.99
2019-04-01T08:26:53.931Z,100238.83
2019-04-01T08:29:30.193Z,100238.72
2019-04-01T08:31:51.968Z,100228.67
2019-04-01T08:34:19.959Z,100228.95
2019-04-01T08:36:48.296Z,100227.28
2019-04-01T08:39:16.381Z,100223.95
2019-04-01T08:41:44.463Z,100223.53
2019-04-01T08:44:15.144Z,100229.46
2019-04-01T08:46:43.152Z,100227.28
2019-04-01T08:49:11.530Z,100218.44
2019-04-01T08:51:39.532Z,100225.36
2019-04-01T08:54:07.624Z,100217.13
2019-04-01T08:56:45.302Z,100217.86
2019-04-01T08:59:15.071Z,100216.93
2019-04-01T09:01:43.514Z,100212.75
2019-04-01T09:04:11.572Z,100214.73
2019-04-01T09:06:39.615Z,100211.78
2019-04-01T09:09:07.703Z,100211.17
2019-04-01T09:11:38.330Z,100213.16
2019-04-01T09:14:05.762Z,100207.88
2019-04-01T09:16:34.931Z,100209.55
2019-04-01T09:19:03.368Z,100205.83
2019-04-01T09:21:32.450Z,100203.70
2019-04-01T09:24:00.736Z,100200.53
2019-04-01T09:26:28.777Z,100195.92
2019-04-01T09:28:56.860Z,100197.38
2019-04-01T09:31:24.908Z,100182.52
2019-04-01T09:33:52.980Z,100187.16
2019-04-01T09:36:21.016Z,100186.05
2019-04-01T09:38:50.204Z,100189.70
2019-04-01T09:41:18.322Z,100181.91
2019-04-01T09:43:47.888Z,100186.11
2019-04-01T09:46:15.974Z,100180.64
2019-04-01T09:48:44.055Z,100175.65
2019-04-01T09:51:12.126Z,100181.06
2019-04-01T09:53:40.189Z,100173.09
2019-04-01T09:56:08.231Z,100172.64
2019-04-01T09:58:36.312Z,100168.70
2019-04-01T10:01:04.313Z,100161.77
2019-04-01T10:03:32.401Z,100158.61
2019-04-01T10:06:00.427Z,100156.02
2019-04-01T10:08:41.532Z,100148.81
2019-04-01T10:10:58.446Z,100151.55
2019-04-01T10:13:26.544Z,100147.78
2019-04-01T10:15:54.640Z,100143.00
2019-04-01T10:18:22.941Z,100138.42
2019-04-01T10:20:50.991Z,100135.22
2019-04-01T10:23:19.069Z,100129.35
2019-04-01T10:25:51.107Z,100118.61
2019-04-01T10:28:18.174Z,100119.41
2019-04-01T10:30:46.223Z,100122.90
2019-04-01T10:33:15.453Z,100115.09
2019-04-01T10:35:43.526Z,100111.31
2019-04-01T10:38:11.976Z,100100.30
2019-04-01T10:40:39.989Z,100099.22
2019-04-01T10:43:08.086Z,100102.73
2019-04-01T10:45:36.231Z,100099.49
2019-04-01T10:48:04.350Z,100090.09
2019-04-01T10:50:32.523Z,100091.69
2019-04-01T10:53:00.778Z,100086.55
2019-04-01T10:55:28.834Z,100083.84
2019-04-01T10:57:57.527Z,100078.40
2019-04-01T11:00:25.724Z,100081.59
2019-04-01T11:02:53.964Z,100068.92
2019-04-01T11:05:22.209Z,100062.75
2019-04-01T11:07:51.114Z,100063.27
2019-04-01T11:10:19.241Z,100058.38
2019-04-01T11:12:47.329Z,100057.59
2019-04-01T11:15:16.356Z,100055.65
2019-04-01T11:17:44.452Z,100055.31
2019-04-01T11:20:12.498Z,100045.80
2019-04-01T11:22:40.529Z,100050.26
2019-04-01T11:25:09.917Z,100045.02
2019-04-01T11:27:38.226Z,100041.16
2019-04-01T11:30:08.057Z,100032.97
2019-04-01T11:32:36.590Z,100032.33
2019-04-01T11:35:06.144Z,100029.80
2019-04-01T11:37:34.505Z,100023.75
2019-04-01T11:40:03.387Z,100019.23
2019-04-01T11:42:31.521Z,100024.17
2019-04-01T11:44:59.731Z,100016.77
2019-04-01T11:47:27.781Z,100011.38
2019-04-01T11:49:56.991Z,100006.83
2019-04-01T11:52:25.207Z,100004.47
2019-04-01T11:54:53.998Z,99992.96
2019-04-01T11:57:22.376Z,99998.91
2019-04-01T11:59:51.488Z,99992.16
2019-04-01T12:02:19.587Z,99983.77
2019-04-01T12:04:47.656Z,99974.27
2019-04-01T12:07:15.769Z,99974.95
2019-04-01T12:09:43.839Z,99975.14
2019-04-01T12:12:23.619Z,99974.79
2019-04-01T12:14:42.509Z,99974.45
2019-04-01T12:17:10.607Z,99966.47
2019-04-01T12:19:40.091Z,99973.02
2019-04-01T12:22:08.331Z,99963.70
2019-04-01T12:24:38.089Z,99959.59
2019-04-01T12:27:06.451Z,99955.72
2019-04-01T12:29:34.692Z,99956.66
2019-04-01T12:32:02.798Z,99950.55
2019-04-01T12:34:31.176Z,99940.57
2019-04-01T12:36:59.187Z,99939.78
2019-04-01T12:39:27.289Z,99945.50
2019-04-01T12:41:55.335Z,99932.94
2019-04-01T12:44:23.400Z,99938.98
2019-04-01T12:46:52.900Z,99927.80
2019-04-01T12:49:21.274Z,99919.69
2019-04-01T12:51:50.419Z,99923.34
2019-04-01T12:54:18.485Z,99918.45
2019-04-01T12:56:46.501Z,99913.88
2019-04-01T12:59:14.627Z,99906.28
2019-04-01T13:01:42.706Z,99910.72
2019-04-01T13:04:12.049Z,99896.97
2019-04-01T13:06:40.398Z,99897.34
2019-04-01T13:09:08.656Z,99894.30
2019-04-01T13:11:38.553Z,99888.02
2019-04-01T13:14:06.576Z,99889.61
2019-04-01T13:16:34.701Z,99890.41
2019-04-01T13:19:02.850Z,99884.19
2019-04-01T13:21:34.501Z,99877.91
2019-04-01T13:24:01.852Z,99877.67
2019-04-01T13:26:31.078Z,99877.44
2019-04-01T13:28:59.477Z,99869.16
2019-04-01T13:31:27.615Z,99862.43
2019-04-01T13:33:55.655Z,99862.15
2019-04-01T13:36:23.773Z,99862.63
2019-04-01T13:38:52.014Z,99852.97
2019-04-01T13:41:20.135Z,99851.75
2019-04-01T13:43:48.625Z,99846.94
2019-04-01T13:46:18.419Z,99844.80
2019-04-01T13:48:57.482Z,99839.25
2019-04-01T13:51:17.553Z,99832.11
2019-04-01T13:53:45.609Z,99830.38
2019-04-01T13:56:13.771Z,99822.20
2019-04-01T13:58:41.857Z,99820.23
2019-04-01T14:01:10.059Z,99821.02
2019-04-01T14:03:38.155Z,99812.56
2019-04-01T14:06:06.218Z,99814.14
2019-04-01T14:08:34.255Z,99819.98
2019-04-01T14:11:05.830Z,99818.30
2019-04-01T14:13:32.915Z,99808.20
2019-04-01T14:16:01.101Z,99800.25
2019-04-01T14:18:29.153Z,99796.05
2019-04-01T14:20:57.223Z,99794.84
2019-04-01T14:23:25.809Z,99790.70
2019-04-01T14:25:53.901Z,99782.77
2019-04-01T14:28:22.045Z,99779.42
2019-04-01T14:30:50.156Z,99778.13
2019-04-01T14:33:18.281Z,99778.31
2019-04-01T14:35:46.621Z,99771.78
2019-04-01T14:38:15.015Z,99775.73
2019-04-01T14:40:43.158Z,99771.44
2019-04-01T14:43:11.238Z,99767.13
2019-04-01T14:45:39.695Z,99763.93
2019-04-01T14:48:08.911Z,99764.50
2019-04-01T14:50:37.062Z,99758.21
2019-04-01T14:53:05.153Z,99753.58
2019-04-01T14:55:33.237Z,99748.89
2019-04-01T14:58:01.354Z,99749.81
2019-04-01T15:00:29.627Z,99744.24
2019-04-01T15:02:58.215Z,99741.16
2019-04-01T15:05:26.242Z,99742.34
2019-04-01T15:07:54.469Z,99732.21
2019-04-01T15:10:22.487Z,99737.19
2019-04-01T15:13:04.490Z,99723.05
2019-04-01T15:15:20.916Z,99727.21
2019-04-01T15:17:48.975Z,99721.41
2019-04-01T15:20:19.059Z,99721.52
2019-04-01T15:22:47.388Z,99716.19
2019-04-01T15:25:15.532Z,99719.20
2019-04-01T15:27:44.701Z,99718.98
2019-04-01T15:30:14.485Z,99713.11
2019-04-01T15:32:42.628Z,99708.86
2019-04-01T15:35:10.722Z,99705.95
2019-04-01T15:38:13.718Z,99705.44
2019-04-01T15:40:50.267Z,99703.05
2019-04-01T15:43:18.342Z,99695.31
2019-04-01T15:45:47.358Z,99696.13
2019-04-01T15:48:15.424Z,99690.25
2019-04-01T15:50:43.413Z,99688.95
2019-04-01T15:53:11.478Z,99684.66
2019-04-01T15:55:39.473Z,99679.83
2019-04-01T15:58:07.545Z,99681.16
2019-04-01T16:00:36.169Z,99674.75
2019-04-01T16:03:04.395Z,99675.55
2019-04-01T16:05:34.120Z,99680.09
2019-04-01T16:08:02.342Z,99672.33
2019-04-01T16:10:30.383Z,99678.20
2019-04-01T16:12:58.519Z,99675.78
2019-04-01T16:15:26.543Z,99673.63
2019-04-01T16:17:54.766Z,99669.30
2019-04-01T16:20:23.149Z,99662.62
2019-04-01T16:22:51.201Z,99666.34
2019-04-01T16:25:19.207Z,99669.30
2019-04-01T16:27:47.271Z,99666.85
2019-04-01T16:30:15.449Z,99674.05
2019-04-01T16:32:43.797Z,99669.75
2019-04-01T16:35:12.075Z,99671.06
2019-04-01T16:37:40.128Z,99674.25
2019-04-01T16:40:08.230Z,99677.70
2019-04-01T16:42:36.411Z,99671.25
2019-04-01T16:45:08.605Z,99677.88
2019-04-01T16:47:36.760Z,99671.19
2019-04-01T16:50:07.221Z,99674.63
2019-04-01T16:52:35.313Z,99675.13
2019-04-01T16:55:07.227Z,99678.33
2019-04-01T16:57:35.601Z,99678.56
2019-04-01T17:00:08.620Z,99676.66
2019-04-01T17:02:36.905Z,99674.48
2019-04-01T17:05:05.683Z,99674.70
2019-04-01T17:07:33.779Z,99672.52
2019-04-01T17:10:02.057Z,99674.34
2019-04-01T17:12:30.189Z,99672.42
2019-04-01T17:14:58.347Z,99676.66
2019-04-01T17:17:26.384Z,99680.30
2019-04-01T17:19:55.786Z,99680.47
2019-04-01T17:22:23.819Z,99676.67
2019-04-01T17:24:51.970Z,99677.14
2019-04-01T17:27:20.077Z,99682.96
2019-04-01T17:29:48.105Z,99682.14
2019-04-01T17:32:16.308Z,99677.83
2019-04-01T17:34:44.992Z,99683.16
2019-04-01T17:37:13.701Z,99687.14
2019-04-01T17:39:41.782Z,99681.47
2019-04-01T17:42:09.936Z,99682.48
2019-04-01T17:44:37.946Z,99684.06
2019-04-01T17:47:06.328Z,99680.02
2019-04-01T17:49:34.771Z,99684.00
2019-04-01T17:52:04.414Z,99679.69
2019-04-01T17:54:32.502Z,99682.61
2019-04-01T17:57:00.581Z,99688.37
2019-04-01T17:59:28.630Z,99691.82
2019-04-01T18:01:57.231Z,99696.02
2019-04-01T18:04:25.427Z,99694.61
2019-04-01T18:06:58.111Z,99689.99
2019-04-01T18:09:24.849Z,99692.04
2019-04-01T18:11:55.203Z,99694.36
2019-04-01T18:14:24.356Z,99695.06
2019-04-01T18:17:11.218Z,99689.39
2019-04-01T18:19:40.099Z,99689.57
2019-04-01T18:22:09.968Z,99692.13
2019-04-01T18:24:38.277Z,99693.89
2019-04-01T18:27:06.837Z,99694.78
2019-04-01T18:29:42.691Z,99695.48
2019-04-01T18:32:10.821Z,99698.28
2019-04-01T18:34:39.042Z,99697.89
2019-04-01T18:37:07.274Z,99699.05
2019-04-01T18:39:48.379Z,99698.37
2019-04-01T18:42:14.934Z,99700.84
2019-04-01T18:44:43.563Z,99708.61
2019-04-01T18:47:11.811Z,99711.07
2019-04-01T18:49:39.874Z,99711.67
2019-04-01T18:52:09.101Z,99708.32
2019-04-01T18:54:37.600Z,99706.57
2019-04-01T18:57:05.769Z,99708.28
2019-04-01T18:59:33.805Z,99713.42
2019-04-01T19:02:28.182Z,99715.12
2019-04-01T19:04:56.252Z,99716.34
2019-04-01T19:07:24.417Z,99715.11
2019-04-01T19:10:05.248Z,99710.20
2019-04-01T19:12:23.334Z,99713.27
2019-04-01T19:14:51.390Z,99711.19
2019-04-01T19:17:19.696Z,99713.16
2019-04-01T19:19:48.797Z,99719.39
2019-04-01T19:22:17.341Z,99714.20
2019-04-01T19:24:45.425Z,99715.92
2019-04-01T19:27:36.171Z,99719.73
2019-04-01T19:30:05.819Z,99721.13
2019-04-01T19:32:33.957Z,99729.02
2019-04-01T19:35:02.118Z,99720.80
2019-04-01T19:37:30.203Z,99728.14
2019-04-01T19:39:58.252Z,99722.41
2019-04-01T19:42:26.387Z,99733.44
2019-04-01T19:44:54.412Z,99725.34
2019-04-01T19:47:22.899Z,99732.16
2019-04-01T19:49:50.934Z,99736.52
2019-04-01T19:52:19.050Z,99734.23
2019-04-01T19:54:47.092Z,99739.92
2019-04-01T19:57:15.209Z,99734.19
2019-04-01T19:59:43.378Z,99741.42
2019-04-01T20:02:12.057Z,99743.36
2019-04-01T20:04:45.413Z,99743.44
2019-04-01T20:07:13.883Z,99748.77
2019-04-01T20:09:42.008Z,99742.16
2019-04-01T20:12:10.140Z,99738.78
2019-04-01T20:14:39.274Z,99737.82
2019-04-01T20:17:09.988Z,99732.37
2019-04-01T20:19:38.663Z,99730.62
2019-04-01T20:22:06.737Z,99734.39
2019-04-01T20:24:34.785Z,99732.13
2019-04-01T20:27:03.089Z,99731.36
2019-04-01T20:29:31.233Z,99725.65
2019-04-01T20:32:00.672Z,99727.84
2019-04-01T20:34:31.962Z,99724.45
2019-04-01T20:37:00.086Z,99732.53
2019-04-01T20:39:28.358Z,99728.84
2019-04-01T20:41:57.394Z,99734.09
2019-04-01T20:44:25.461Z,99731.44
2019-04-01T20:46:53.901Z,99727.73
2019-04-01T20:49:22.443Z,99726.98
2019-04-01T20:51:50.864Z,99719.39
2019-04-01T20:54:18.898Z,99723.09
2019-04-01T20:56:46.974Z,99719.91
2019-04-01T20:59:15.001Z,99718.63
2019-04-01T21:01:43.173Z,99712.64
2019-04-01T21:04:11.227Z,99712.17
2019-04-01T21:06:39.295Z,99711.81
2019-04-01T21:09:08.499Z,99703.98
2019-04-01T21:11:36.558Z,99711.23
2019-04-01T21:14:04.950Z,99707.30
2019-04-01T21:16:33.031Z,99709.17
2019-04-01T21:19:01.072Z,99701.20
2019-04-01T21:21:29.102Z,99697.56
2019-04-01T21:23:59.809Z,99692.31
2019-04-01T21:26:28.025Z,99693.75
2019-04-01T21:28:56.086Z,99691.97
2019-04-01T21:31:24.123Z,99682.94
2019-04-01T21:33:52.484Z,99683.67
2019-04-01T21:36:20.549Z,99678.73
2019-04-01T21:38:48.627Z,99680.58
2019-04-01T21:41:16.652Z,99677.95
2019-04-01T21:43:44.698Z,99682.88
2019-04-01T21:46:13.205Z,99681.27
2019-04-01T21:48:42.300Z,99679.54
2019-04-01T21:51:10.682Z,99674.98
2019-04-01T21:53:38.762Z,99675.89
2019-04-01T21:56:06.799Z,99679.17
2019-04-01T21:58:34.887Z,99678.96
2019-04-01T22:01:03.029Z,99675.61
2019-04-01T22:03:33.110Z,99679.69
2019-04-01T22:06:01.158Z,99682.52
2019-04-01T22:08:29.280Z,99678.68
2019-04-01T22:10:57.407Z,99681.70
2019-04-01T22:13:26.376Z,99671.97
2019-04-01T22:15:55.432Z,99673.92
2019-04-01T22:18:23.526Z,99672.91
2019-04-01T22:20:51.570Z,99670.86
2019-04-01T22:23:19.637Z,99667.59
2019-04-01T22:25:47.636Z,99674.91
2019-04-01T22:28:15.670Z,99674.91
2019-04-01T22:30:43.716Z,99674.58
2019-04-01T22:33:11.769Z,99677.12
2019-04-01T22:35:41.556Z,99675.00
2019-04-01T22:38:09.752Z,99673.08
2019-04-01T22:40:37.824Z,99671.46
2019-04-01T22:43:06.012Z,99666.27
2019-04-01T22:45:34.032Z,99662.41
2019-04-01T22:48:02.096Z,99667.59
2019-04-01T22:50:30.184Z,99664.86
2019-04-01T22:52:58.334Z,99664.05
2019-04-01T22:55:28.072Z,99668.30
2019-04-01T22:57:56.272Z,99670.12
2019-04-01T23:00:24.502Z,99658.78
2019-04-01T23:02:52.586Z,99667.28
2019-04-01T23:05:20.662Z,99667.28
2019-04-01T23:07:48.717Z,99676.51
2019-04-01T23:10:16.915Z,99670.64
2019-04-01T23:12:44.978Z,99678.21
2019-04-01T23:15:15.383Z,99670.52
2019-04-01T23:17:43.893Z,99668.09
2019-04-01T23:20:12.064Z,99672.34
2019-04-01T23:22:40.106Z,99670.72
2019-04-01T23:25:08.456Z,99670.63
2019-04-01T23:27:36.465Z,99674.96
2019-04-01T23:30:07.441Z,99669.09
2019-04-01T23:32:36.793Z,99667.77
2019-04-01T23:35:05.650Z,99664.84
2019-04-01T23:37:33.700Z,99659.57
2019-04-01T23:40:02.387Z,99662.20
2019-04-01T23:42:31.424Z,99659.06
2019-04-01T23:45:00.607Z,99656.43
2019-04-01T23:47:30.427Z,99661.48
2019-04-01T23:50:00.171Z,99652.48
2019-04-01T23:52:28.223Z,99651.97
2019-04-01T23:54:56.636Z,99651.34
2019-04-01T23:57:25.955Z,99651.84
2019-04-01T23:59:54.023Z,99655.11
